sensor_id;sensor_type;location;lat;lon;timestamp;P1;durP1;ratioP1;P2;durP2;ratioP2
46983;SDS011;34732;52.112;9.366;2023-12-20T09:10:04;3.50;;;3.50;;
46983;SDS011;34732;52.112;9.366;2023-12-20T09:13:33;3.00;;;2.00;;
46983;SDS011;34732;52.112;9.366;2023-12-20T09:16:56;3.25;;;3.00;;
46983;SDS011;34732;52.112;9.366;2023-12-20T09:20:23;3.00;;;3.00;;
46983;SDS011;34732;52.112;9.366;2023-12-20T09:23:53;2.75;;;2.00;;
46983;SDS011;34732;52.112;9.366;2023-12-20T09:27:33;2.25;;;2.00;;
46983;SDS011;34732;52.112;9.366;2023-12-20T09:30:59;1.75;;;1.75;;
46983;SDS011;34732;52.112;9.366;2023-12-20T09:34:20;3.00;;;2.50;;
46983;SDS011;34732;52.112;9.366;2023-12-20T09:37:44;2.00;;;2.00;;
46983;SDS011;34732;52.112;9.366;2023-12-20T09:41:15;3.00;;;2.00;;
46983;SDS011;34732;52.112;9.366;2023-12-20T09:44:39;2.00;;;2.00;;
46983;SDS011;34732;52.112;9.366;2023-12-20T09:48:08;2.25;;;2.25;;
46983;SDS011;34732;52.112;9.366;2023-12-20T09:51:31;2.25;;;2.00;;
46983;SDS011;34732;52.112;9.366;2023-12-20T09:54:58;1.25;;;1.25;;
46983;SDS011;34732;52.112;9.366;2023-12-20T09:58:26;2.50;;;2.00;;
46983;SDS011;34732;52.112;9.366;2023-12-20T10:01:52;1.50;;;1.50;;
46983;SDS011;34732;52.112;9.366;2023-12-20T10:05:18;1.25;;;0.25;;
46983;SDS011;34732;52.112;9.366;2023-12-20T10:08:48;4.00;;;3.00;;
46983;SDS011;34732;52.112;9.366;2023-12-20T10:12:17;2.00;;;1.50;;
46983;SDS011;34732;52.112;9.366;2023-12-20T10:24:50;2.00;;;2.00;;
46983;SDS011;34732;52.112;9.366;2023-12-20T10:28:18;1.25;;;1.25;;
46983;SDS011;34732;52.112;9.366;2023-12-20T10:31:46;2.00;;;2.00;;
46983;SDS011;34732;52.112;9.366;2023-12-20T10:35:10;2.00;;;2.00;;
46983;SDS011;34732;52.112;9.366;2023-12-20T10:38:39;2.00;;;1.75;;
46983;SDS011;34732;52.112;9.366;2023-12-20T10:42:05;1.25;;;1.25;;
46983;SDS011;34732;52.112;9.366;2023-12-20T10:45:31;1.25;;;1.25;;
46983;SDS011;34732;52.112;9.366;2023-12-20T10:49:02;2.00;;;2.00;;
46983;SDS011;34732;52.112;9.366;2023-12-20T10:52:36;3.50;;;1.75;;
46983;SDS011;34732;52.112;9.366;2023-12-20T10:55:57;1.00;;;1.00;;
46983;SDS011;34732;52.112;9.366;2023-12-20T10:59:24;1.75;;;1.75;;
46983;SDS011;34732;52.112;9.366;2023-12-20T11:02:49;1.00;;;1.00;;
46983;SDS011;34732;52.112;9.366;2023-12-20T11:26:20;1.00;;;1.00;;
46983;SDS011;34732;52.112;9.366;2023-12-20T11:37:57;2.00;;;2.00;;
46983;SDS011;34732;52.112;9.366;2023-12-20T11:41:18;1.50;;;1.00;;
46983;SDS011;34732;52.112;9.366;2023-12-20T11:44:40;0.75;;;0.75;;
46983;SDS011;34732;52.112;9.366;2023-12-20T11:48:10;1.00;;;1.00;;
46983;SDS011;34732;52.112;9.366;2023-12-20T11:51:40;2.00;;;1.50;;
46983;SDS011;34732;52.112;9.366;2023-12-20T11:55:14;0.75;;;0.75;;
46983;SDS011;34732;52.112;9.366;2023-12-20T11:58:47;2.25;;;1.75;;
46983;SDS011;34732;52.112;9.366;2023-12-20T12:02:16;2.00;;;1.75;;
46983;SDS011;34732;52.112;9.366;2023-12-20T12:05:41;1.00;;;1.00;;
46983;SDS011;34732;52.112;9.366;2023-12-20T12:09:10;1.00;;;1.00;;
46983;SDS011;34732;52.112;9.366;2023-12-20T12:12:40;1.25;;;1.25;;
46983;SDS011;34732;52.112;9.366;2023-12-20T12:16:06;1.50;;;1.00;;
46983;SDS011;34732;52.112;9.366;2023-12-20T12:19:32;1.50;;;1.25;;
46983;SDS011;34732;52.112;9.366;2023-12-20T12:23:13;2.50;;;1.25;;
46983;SDS011;34732;52.112;9.366;2023-12-20T12:31:15;2.00;;;2.00;;
46983;SDS011;34732;52.112;9.366;2023-12-20T12:34:40;2.00;;;1.00;;
46983;SDS011;34732;52.112;9.366;2023-12-20T12:38:06;1.00;;;1.00;;
46983;SDS011;34732;52.112;9.366;2023-12-20T12:41:30;2.00;;;1.00;;
46983;SDS011;34732;52.112;9.366;2023-12-20T12:44:54;1.00;;;1.00;;
46983;SDS011;34732;52.112;9.366;2023-12-20T12:48:29;1.00;;;1.00;;
46983;SDS011;34732;52.112;9.366;2023-12-20T12:51:57;1.00;;;1.00;;
46983;SDS011;34732;52.112;9.366;2023-12-20T12:55:23;1.00;;;1.00;;
46983;SDS011;34732;52.112;9.366;2023-12-20T12:58:49;0.50;;;0.50;;
46983;SDS011;34732;52.112;9.366;2023-12-20T13:02:10;1.00;;;1.00;;
46983;SDS011;34732;52.112;9.366;2023-12-20T13:05:42;1.00;;;1.00;;
46983;SDS011;34732;52.112;9.366;2023-12-20T13:09:09;1.00;;;1.00;;
46983;SDS011;34732;52.112;9.366;2023-12-20T13:12:37;1.00;;;1.00;;
46983;SDS011;34732;52.112;9.366;2023-12-20T13:20:33;1.00;;;1.00;;
46983;SDS011;34732;52.112;9.366;2023-12-20T13:23:59;1.00;;;1.00;;
46983;SDS011;34732;52.112;9.366;2023-12-20T13:27:36;0.00;;;0.00;;
46983;SDS011;34732;52.112;9.366;2023-12-20T13:31:00;0.25;;;0.25;;
46983;SDS011;34732;52.112;9.366;2023-12-20T13:34:26;1.50;;;1.00;;
46983;SDS011;34732;52.112;9.366;2023-12-20T13:38:05;0.00;;;0.00;;
46983;SDS011;34732;52.112;9.366;2023-12-20T13:41:32;0.50;;;0.00;;
46983;SDS011;34732;52.112;9.366;2023-12-20T13:44:56;2.00;;;1.00;;
46983;SDS011;34732;52.112;9.366;2023-12-20T13:48:17;1.50;;;1.00;;
46983;SDS011;34732;52.112;9.366;2023-12-20T13:51:44;1.00;;;0.00;;
46983;SDS011;34732;52.112;9.366;2023-12-20T13:55:22;1.25;;;1.25;;
46983;SDS011;34732;52.112;9.366;2023-12-20T13:58:45;1.00;;;1.00;;
46983;SDS011;34732;52.112;9.366;2023-12-20T14:02:07;1.25;;;1.25;;
46983;SDS011;34732;52.112;9.366;2023-12-20T14:05:31;2.00;;;2.00;;
46983;SDS011;34732;52.112;9.366;2023-12-20T14:08:54;1.50;;;1.00;;
46983;SDS011;34732;52.112;9.366;2023-12-20T14:12:15;3.00;;;2.75;;
46983;SDS011;34732;52.112;9.366;2023-12-20T14:15:44;2.00;;;1.25;;
46983;SDS011;34732;52.112;9.366;2023-12-20T14:19:10;2.50;;;1.50;;
46983;SDS011;34732;52.112;9.366;2023-12-20T14:22:33;2.50;;;2.00;;
46983;SDS011;34732;52.112;9.366;2023-12-20T14:25:57;1.00;;;1.00;;
46983;SDS011;34732;52.112;9.366;2023-12-20T14:29:23;2.00;;;2.00;;
46983;SDS011;34732;52.112;9.366;2023-12-20T14:32:50;2.00;;;1.25;;
46983;SDS011;34732;52.112;9.366;2023-12-20T14:36:11;0.00;;;0.00;;
46983;SDS011;34732;52.112;9.366;2023-12-20T14:39:35;1.00;;;0.25;;
46983;SDS011;34732;52.112;9.366;2023-12-20T14:43:04;1.00;;;1.00;;
46983;SDS011;34732;52.112;9.366;2023-12-20T14:46:25;1.00;;;1.00;;
46983;SDS011;34732;52.112;9.366;2023-12-20T14:49:47;0.50;;;0.50;;
46983;SDS011;34732;52.112;9.366;2023-12-20T14:53:13;2.33;;;1.00;;
46983;SDS011;34732;52.112;9.366;2023-12-20T14:56:40;1.00;;;0.50;;
46983;SDS011;34732;52.112;9.366;2023-12-20T15:00:14;1.00;;;0.80;;
46983;SDS011;34732;52.112;9.366;2023-12-20T15:03:41;1.00;;;0.75;;
46983;SDS011;34732;52.112;9.366;2023-12-20T15:07:04;0.50;;;0.50;;
46983;SDS011;34732;52.112;9.366;2023-12-20T15:10:28;2.00;;;2.00;;
46983;SDS011;34732;52.112;9.366;2023-12-20T15:13:51;1.00;;;1.00;;
46983;SDS011;34732;52.112;9.366;2023-12-20T15:17:18;0.00;;;0.00;;
46983;SDS011;34732;52.112;9.366;2023-12-20T15:20:51;0.50;;;0.50;;
46983;SDS011;34732;52.112;9.366;2023-12-20T15:24:17;0.50;;;0.50;;
46983;SDS011;34732;52.112;9.366;2023-12-20T15:27:52;2.50;;;1.50;;
46983;SDS011;34732;52.112;9.366;2023-12-20T15:31:16;0.75;;;0.75;;
46983;SDS011;34732;52.112;9.366;2023-12-20T15:34:47;1.00;;;1.00;;
46983;SDS011;34732;52.112;9.366;2023-12-20T15:38:11;1.00;;;1.00;;
46983;SDS011;34732;52.112;9.366;2023-12-20T15:41:34;1.50;;;0.50;;
46983;SDS011;34732;52.112;9.366;2023-12-20T15:44:56;1.00;;;1.00;;
46983;SDS011;34732;52.112;9.366;2023-12-20T15:48:17;1.00;;;1.00;;
46983;SDS011;34732;52.112;9.366;2023-12-20T15:51:44;1.00;;;1.00;;
46983;SDS011;34732;52.112;9.366;2023-12-20T15:55:12;0.50;;;0.50;;
46983;SDS011;34732;52.112;9.366;2023-12-20T15:58:38;0.50;;;0.50;;
46983;SDS011;34732;52.112;9.366;2023-12-20T16:02:02;2.00;;;1.00;;
46983;SDS011;34732;52.112;9.366;2023-12-20T16:05:25;1.00;;;1.00;;
46983;SDS011;34732;52.112;9.366;2023-12-20T16:08:54;0.00;;;0.00;;
46983;SDS011;34732;52.112;9.366;2023-12-20T16:12:17;1.00;;;1.00;;
46983;SDS011;34732;52.112;9.366;2023-12-20T16:15:45;1.00;;;1.00;;
46983;SDS011;34732;52.112;9.366;2023-12-20T16:19:07;0.75;;;0.75;;
46983;SDS011;34732;52.112;9.366;2023-12-20T16:22:38;0.00;;;0.00;;
46983;SDS011;34732;52.112;9.366;2023-12-20T16:26:04;0.00;;;0.00;;
46983;SDS011;34732;52.112;9.366;2023-12-20T16:33:42;1.00;;;1.00;;
46983;SDS011;34732;52.112;9.366;2023-12-20T16:37:08;0.75;;;0.75;;
46983;SDS011;34732;52.112;9.366;2023-12-20T16:40:35;1.00;;;1.00;;
46983;SDS011;34732;52.112;9.366;2023-12-20T16:43:58;2.50;;;1.00;;
46983;SDS011;34732;52.112;9.366;2023-12-20T16:47:19;2.50;;;2.00;;
46983;SDS011;34732;52.112;9.366;2023-12-20T16:50:46;1.50;;;1.25;;
46983;SDS011;34732;52.112;9.366;2023-12-20T16:54:09;1.75;;;1.00;;
46983;SDS011;34732;52.112;9.366;2023-12-20T16:57:35;0.00;;;0.00;;
46983;SDS011;34732;52.112;9.366;2023-12-20T17:01:01;2.00;;;1.75;;
46983;SDS011;34732;52.112;9.366;2023-12-20T17:04:25;0.25;;;0.25;;
46983;SDS011;34732;52.112;9.366;2023-12-20T17:07:47;0.25;;;0.25;;
46983;SDS011;34732;52.112;9.366;2023-12-20T17:11:10;3.00;;;1.75;;
46983;SDS011;34732;52.112;9.366;2023-12-20T17:14:32;1.00;;;1.00;;
46983;SDS011;34732;52.112;9.366;2023-12-20T17:17:55;0.50;;;0.00;;
46983;SDS011;34732;52.112;9.366;2023-12-20T17:21:22;1.00;;;1.00;;
46983;SDS011;34732;52.112;9.366;2023-12-20T17:24:43;1.00;;;0.50;;
46983;SDS011;34732;52.112;9.366;2023-12-20T17:28:07;0.00;;;0.00;;
46983;SDS011;34732;52.112;9.366;2023-12-20T17:31:30;1.25;;;0.75;;
46983;SDS011;34732;52.112;9.366;2023-12-20T17:34:56;0.50;;;0.50;;
46983;SDS011;34732;52.112;9.366;2023-12-20T17:38:20;0.00;;;0.00;;
46983;SDS011;34732;52.112;9.366;2023-12-20T17:41:44;2.00;;;1.00;;
46983;SDS011;34732;52.112;9.366;2023-12-20T17:45:12;0.75;;;0.75;;
46983;SDS011;34732;52.112;9.366;2023-12-20T17:48:37;1.50;;;1.50;;
46983;SDS011;34732;52.112;9.366;2023-12-20T17:52:04;1.50;;;1.00;;
46983;SDS011;34732;52.112;9.366;2023-12-20T17:55:29;1.75;;;1.75;;
46983;SDS011;34732;52.112;9.366;2023-12-20T17:58:55;2.00;;;2.00;;
46983;SDS011;34732;52.112;9.366;2023-12-20T18:02:16;2.00;;;2.00;;
46983;SDS011;34732;52.112;9.366;2023-12-20T18:05:39;1.00;;;1.00;;
46983;SDS011;34732;52.112;9.366;2023-12-20T18:09:03;1.00;;;1.00;;
46983;SDS011;34732;52.112;9.366;2023-12-20T18:12:26;1.00;;;1.00;;
46983;SDS011;34732;52.112;9.366;2023-12-20T18:15:50;1.50;;;1.50;;
46983;SDS011;34732;52.112;9.366;2023-12-20T18:19:12;2.75;;;2.25;;
46983;SDS011;34732;52.112;9.366;2023-12-20T18:22:33;2.50;;;2.50;;
46983;SDS011;34732;52.112;9.366;2023-12-20T18:25:57;2.00;;;1.50;;
46983;SDS011;34732;52.112;9.366;2023-12-20T18:29:22;2.00;;;2.00;;
46983;SDS011;34732;52.112;9.366;2023-12-20T18:32:44;1.25;;;1.00;;
46983;SDS011;34732;52.112;9.366;2023-12-20T18:36:23;1.50;;;1.00;;
46983;SDS011;34732;52.112;9.366;2023-12-20T18:44:00;1.50;;;1.50;;
46983;SDS011;34732;52.112;9.366;2023-12-20T18:47:27;1.00;;;1.00;;
46983;SDS011;34732;52.112;9.366;2023-12-20T18:50:53;2.00;;;1.50;;
46983;SDS011;34732;52.112;9.366;2023-12-20T18:54:14;1.00;;;1.00;;
46983;SDS011;34732;52.112;9.366;2023-12-20T18:57:38;5.00;;;5.00;;
46983;SDS011;34732;52.112;9.366;2023-12-20T19:01:01;8.75;;;8.50;;
46983;SDS011;34732;52.112;9.366;2023-12-20T19:04:36;7.50;;;7.00;;
46983;SDS011;34732;52.112;9.366;2023-12-20T19:08:00;5.25;;;5.00;;
46983;SDS011;34732;52.112;9.366;2023-12-20T19:11:26;5.00;;;4.25;;
46983;SDS011;34732;52.112;9.366;2023-12-20T19:15:01;8.50;;;8.00;;
46983;SDS011;34732;52.112;9.366;2023-12-20T19:18:27;8.75;;;6.75;;
46983;SDS011;34732;52.112;9.366;2023-12-20T19:21:53;7.25;;;7.00;;
46983;SDS011;34732;52.112;9.366;2023-12-20T19:25:14;8.00;;;7.00;;
46983;SDS011;34732;52.112;9.366;2023-12-20T19:28:36;8.00;;;6.50;;
46983;SDS011;34732;52.112;9.366;2023-12-20T19:31:59;8.25;;;8.00;;
46983;SDS011;34732;52.112;9.366;2023-12-20T19:35:23;11.00;;;9.50;;
46983;SDS011;34732;52.112;9.366;2023-12-20T19:38:46;9.25;;;9.00;;
46983;SDS011;34732;52.112;9.366;2023-12-20T19:42:11;10.75;;;9.50;;
46983;SDS011;34732;52.112;9.366;2023-12-20T19:45:37;7.00;;;6.50;;
46983;SDS011;34732;52.112;9.366;2023-12-20T19:49:01;9.50;;;8.50;;
